Time;durP1;ratioP1;P1;durP2;ratioP2;P2;SDS_P1;SDS_P2;PMS_P1;PMS_P2;Temp;Humidity;BMP_temperature;BMP_pressure;BME280_temperature;BME280_humidity;BME280_pressure;Samples;Min_cycle;Max_cycle;Signal;HPM_P1;HPM_P2
2022/10/09 00:00:38;;;;;;;3.20;2.27;;;9.90;99.90;;;;;;5111620;28;20454;-68
2022/10/09 00:03:05;;;;;;;2.80;1.90;;;9.70;99.90;;;;;;5121936;27;20733;-68
2022/10/09 00:05:32;;;;;;;3.00;2.20;;;9.60;99.90;;;;;;5101551;28;20459;-69
2022/10/09 00:07:59;;;;;;;3.57;2.33;;;9.70;99.90;;;;;;5108167;28;20879;-68
2022/10/09 00:10:26;;;;;;;4.53;2.40;;;9.50;99.90;;;;;;5111704;28;20454;-68
2022/10/09 00:12:54;;;;;;;3.67;2.20;;;9.50;99.90;;;;;;5110644;28;20443;-67
2022/10/09 00:15:21;;;;;;;3.17;2.00;;;9.60;99.90;;;;;;5111390;28;20868;-69
2022/10/09 00:17:48;;;;;;;2.20;2.00;;;9.70;99.90;;;;;;5112072;28;20451;-69
2022/10/09 00:20:15;;;;;;;3.40;2.57;;;9.70;99.90;;;;;;5111223;28;20451;-68
2022/10/09 00:22:43;;;;;;;2.20;1.83;;;9.70;99.90;;;;;;5111685;28;20440;-68
2022/10/09 00:25:09;;;;;;;3.53;2.57;;;9.90;99.90;;;;;;5110899;28;20509;-68
2022/10/09 00:27:36;;;;;;;3.30;2.57;;;9.80;99.90;;;;;;5111578;28;20448;-69
2022/10/09 00:30:05;;;;;;;3.03;2.27;;;9.60;99.90;;;;;;5111084;28;20450;-69
2022/10/09 00:32:32;;;;;;;4.17;2.77;;;9.50;99.90;;;;;;5111463;28;20444;-69
2022/10/09 00:34:59;;;;;;;5.83;2.50;;;9.50;99.90;;;;;;5110686;28;20487;-68
2022/10/09 00:37:26;;;;;;;2.67;2.30;;;9.60;99.90;;;;;;5111351;28;20443;-69
2022/10/09 00:39:53;;;;;;;2.70;1.83;;;9.50;99.90;;;;;;5108444;28;20451;-68
2022/10/09 00:42:20;;;;;;;2.73;2.03;;;9.40;99.90;;;;;;5111231;28;20447;-69
2022/10/09 00:44:51;;;;;;;2.97;1.67;;;9.20;99.90;;;;;;5110718;28;20457;-69
2022/10/09 00:47:23;;;;;;;3.00;2.47;;;9.20;99.90;;;;;;5110715;28;20479;-69
2022/10/09 00:49:54;;;;;;;4.27;2.30;;;9.20;99.90;;;;;;5111706;28;20456;-69
2022/10/09 00:52:22;;;;;;;2.50;2.30;;;9.00;99.90;;;;;;5111701;28;20439;-70
2022/10/09 00:54:49;;;;;;;8.20;3.37;;;9.10;99.90;;;;;;5110688;28;20451;-69
2022/10/09 00:57:16;;;;;;;3.03;2.73;;;8.90;99.90;;;;;;5110430;28;20482;-69
2022/10/09 00:59:43;;;;;;;4.37;2.40;;;8.90;99.90;;;;;;5111486;28;20446;-69
2022/10/09 01:02:10;;;;;;;5.47;2.67;;;8.90;99.90;;;;;;5109959;28;20529;-69
2022/10/09 01:04:38;;;;;;;2.80;1.87;;;8.90;99.90;;;;;;5110959;28;20449;-68
2022/10/09 01:07:17;;;;;;;4.00;2.80;;;8.90;99.90;;;;;;5100001;28;20980;-68
2022/10/09 01:09:50;;;;;;;4.70;2.40;;;9.10;99.90;;;;;;5110909;28;20451;-68
2022/10/09 01:12:24;;;;;;;4.17;1.77;;;9.00;99.90;;;;;;5108046;28;20526;-68
2022/10/09 01:14:58;;;;;;;4.40;1.73;;;8.90;99.90;;;;;;5097195;28;20445;-68
2022/10/09 01:17:33;;;;;;;3.20;2.00;;;9.10;99.90;;;;;;5110969;28;20493;-69
2022/10/09 01:20:22;;;;;;;3.20;2.03;;;9.00;99.90;;;;;;5110541;28;20441;-68
2022/10/09 01:23:06;;;;;;;2.33;1.80;;;9.00;99.90;;;;;;5111214;28;20447;-69
2022/10/09 01:25:41;;;;;;;2.93;1.97;;;9.00;99.90;;;;;;5113026;28;20444;-69
2022/10/09 01:28:10;;;;;;;3.17;2.13;;;8.80;99.90;;;;;;5114867;28;20457;-68
2022/10/09 01:30:37;;;;;;;4.80;1.97;;;8.60;99.90;;;;;;5115004;28;20448;-69
2022/10/09 01:33:05;;;;;;;3.40;2.57;;;8.50;99.90;;;;;;5111703;28;20970;-68
2022/10/09 01:35:32;;;;;;;3.97;2.00;;;8.60;99.90;;;;;;5114417;28;20884;-69
2022/10/09 01:38:01;;;;;;;2.80;2.10;;;8.50;99.90;;;;;;5114403;28;20457;-68
2022/10/09 01:40:28;;;;;;;2.70;2.23;;;8.40;99.90;;;;;;5111737;28;20919;-68
2022/10/09 01:42:56;;;;;;;3.83;2.20;;;8.30;99.90;;;;;;5113896;28;20942;-68
2022/10/09 01:45:24;;;;;;;3.07;1.90;;;8.30;99.90;;;;;;5114258;28;20450;-68
2022/10/09 01:47:51;;;;;;;2.77;2.50;;;8.20;99.90;;;;;;5115021;28;20475;-68
2022/10/09 01:50:23;;;;;;;5.13;2.23;;;8.30;99.90;;;;;;5114598;28;20450;-68
2022/10/09 01:52:52;;;;;;;2.97;2.00;;;8.30;99.90;;;;;;5115057;28;20445;-68
2022/10/09 01:55:31;;;;;;;2.50;2.17;;;8.40;99.90;;;;;;5113687;28;20520;-69
2022/10/09 01:58:05;;;;;;;3.10;2.20;;;8.30;99.90;;;;;;5113897;28;20892;-68
2022/10/09 02:00:37;;;;;;;3.50;2.33;;;8.30;99.90;;;;;;5114771;28;20447;-68
2022/10/09 02:03:09;;;;;;;3.97;2.20;;;8.30;99.90;;;;;;5113468;28;20441;-68
2022/10/09 02:05:38;;;;;;;3.03;2.20;;;8.40;99.90;;;;;;5113789;28;20458;-69
2022/10/09 02:08:06;;;;;;;3.10;2.23;;;8.30;99.90;;;;;;5113090;28;20459;-68
2022/10/09 02:10:35;;;;;;;3.40;3.00;;;8.40;99.90;;;;;;5113766;28;20457;-69
2022/10/09 02:13:02;;;;;;;2.67;2.20;;;8.40;99.90;;;;;;5113752;28;20446;-68
2022/10/09 02:15:34;;;;;;;2.60;1.87;;;8.40;99.90;;;;;;5113448;28;20473;-69
2022/10/09 02:18:08;;;;;;;3.30;1.70;;;8.30;99.90;;;;;;5113683;28;20551;-69
2022/10/09 02:20:39;;;;;;;6.07;2.57;;;8.20;99.90;;;;;;5114413;28;20456;-69
2022/10/09 02:23:08;;;;;;;3.20;2.30;;;8.10;99.90;;;;;;5113563;28;20456;-68
2022/10/09 02:25:35;;;;;;;3.67;2.57;;;8.50;99.90;;;;;;5113456;28;20912;-69
2022/10/09 02:28:03;;;;;;;4.23;2.10;;;8.30;99.90;;;;;;5113507;28;20460;-69
2022/10/09 02:30:39;;;;;;;2.50;2.30;;;8.10;99.90;;;;;;5114216;28;20445;-69
2022/10/09 02:33:07;;;;;;;1.93;1.60;;;8.10;99.90;;;;;;5113492;28;20441;-69
2022/10/09 02:35:34;;;;;;;3.60;2.20;;;8.10;99.90;;;;;;5113025;28;20461;-69
2022/10/09 02:38:00;;;;;;;3.80;2.10;;;8.10;99.90;;;;;;5112929;28;20451;-69
2022/10/09 02:40:27;;;;;;;2.53;2.00;;;8.00;99.90;;;;;;5113408;28;20445;-69
2022/10/09 02:42:54;;;;;;;2.80;2.40;;;8.10;99.90;;;;;;5113248;28;20522;-68
2022/10/09 02:45:21;;;;;;;2.60;2.40;;;7.90;99.90;;;;;;5113079;28;20459;-69
2022/10/09 02:47:47;;;;;;;3.80;2.00;;;7.90;99.90;;;;;;5113407;28;20480;-69
2022/10/09 02:50:16;;;;;;;3.00;2.13;;;8.10;99.90;;;;;;5112887;28;20816;-69
2022/10/09 02:52:43;;;;;;;2.60;2.20;;;8.20;99.90;;;;;;5113703;28;20460;-70
2022/10/09 02:55:10;;;;;;;2.27;2.07;;;8.10;99.90;;;;;;5112409;28;20449;-69
2022/10/09 02:57:36;;;;;;;2.87;2.13;;;8.10;99.90;;;;;;5113618;28;20503;-69
2022/10/09 03:00:04;;;;;;;4.60;2.50;;;8.00;99.90;;;;;;5112541;28;20468;-69
2022/10/09 03:02:31;;;;;;;4.30;2.40;;;7.90;99.90;;;;;;5105986;28;20473;-69
2022/10/09 03:04:58;;;;;;;5.00;2.37;;;7.80;99.90;;;;;;5112197;28;20451;-69
2022/10/09 03:07:26;;;;;;;3.60;2.17;;;;;;;;;;5113427;28;20459;-70
2022/10/09 03:09:55;;;;;;;5.30;2.40;;;;;;;;;;5112218;28;20456;-69
2022/10/09 03:12:23;;;;;;;2.47;2.10;;;;;;;;;;5113256;28;20478;-69
2022/10/09 03:14:50;;;;;;;4.33;2.80;;;;;;;;;;5112950;28;20455;-70
2022/10/09 03:17:17;;;;;;;3.33;1.80;;;;;;;;;;5112392;28;20490;-70
2022/10/09 03:19:44;;;;;;;3.00;2.63;;;;;;;;;;5113131;28;20466;-69
2022/10/09 03:22:11;;;;;;;3.00;2.17;;;;;;;;;;5112033;28;20803;-69
2022/10/09 03:24:40;;;;;;;2.53;1.63;;;;;;;;;;5112294;28;20462;-70
2022/10/09 03:27:07;;;;;;;5.97;2.63;;;;;;;;;;5112380;28;20816;-70
2022/10/09 03:29:34;;;;;;;2.23;1.60;;;;;;;;;;5112806;28;20451;-69
2022/10/09 03:32:01;;;;;;;7.07;2.27;;;;;;;;;;5112259;28;20451;-70
2022/10/09 03:34:28;;;;;;;3.20;2.17;;;;;;;;;;5112483;28;20808;-68
2022/10/09 03:36:55;;;;;;;3.10;2.10;;;;;;;;;;5112320;28;20475;-68
2022/10/09 03:39:22;;;;;;;4.27;2.10;;;;;;;;;;5112400;28;20452;-69
2022/10/09 03:41:51;;;;;;;3.50;2.60;;;;;;;;;;5112751;28;20448;-68
2022/10/09 03:44:18;;;;;;;3.00;2.70;;;;;;;;;;5112122;28;20530;-69
2022/10/09 03:46:45;;;;;;;3.80;2.53;;;;;;;;;;5112586;28;20478;-70
2022/10/09 03:49:12;;;;;;;2.97;2.67;;;;;;;;;;5110846;28;20454;-70
2022/10/09 03:51:39;;;;;;;2.40;1.87;;;;;;;;;;5112498;28;20531;-68
2022/10/09 03:54:07;;;;;;;2.73;1.73;;;;;;;;;;5111158;28;20462;-69
2022/10/09 03:56:34;;;;;;;5.90;2.93;;;;;;;;;;5111815;28;20483;-69
2022/10/09 03:59:04;;;;;;;2.90;1.80;;;;;;;;;;5111916;28;20461;-68
2022/10/09 04:01:31;;;;;;;2.63;2.27;;;;;;;;;;5112081;28;20545;-71
2022/10/09 04:03:58;;;;;;;3.07;2.27;;;;;;;;;;5110987;28;20447;-68
2022/10/09 04:06:25;;;;;;;2.17;1.97;;;;;;;;;;5112227;28;20444;-68
2022/10/09 04:08:53;;;;;;;2.23;1.60;;;;;;;;;;5111724;28;20451;-68
2022/10/09 04:11:20;;;;;;;2.80;2.10;;;;;;;;;;5111862;28;20463;-68
2022/10/09 04:13:47;;;;;;;3.00;2.10;;;;;;;;;;5111195;28;20448;-68
2022/10/09 04:16:15;;;;;;;9.80;3.10;;;;;;;;;;5111309;28;20458;-68
2022/10/09 04:18:43;;;;;;;2.70;2.03;;;;;;;;;;5111781;28;20946;-68
2022/10/09 04:21:12;;;;;;;2.47;1.60;;;;;;;;;;5111198;28;20440;-68
2022/10/09 04:23:39;;;;;;;6.03;2.50;;;;;;;;;;5111469;28;20443;-68
2022/10/09 04:26:06;;;;;;;2.80;1.80;;;;;;;;;;5111188;28;20443;-68
2022/10/09 04:28:33;;;;;;;2.17;1.87;;;;;;;;;;5111713;28;20454;-69
2022/10/09 04:31:00;;;;;;;1.93;1.60;;;;;;;;;;5110774;28;20456;-69
2022/10/09 04:33:29;;;;;;;2.83;2.40;;;;;;;;;;5110749;28;20452;-69
2022/10/09 04:35:56;;;;;;;4.83;2.67;;;;;;;;;;5111304;28;20458;-69
2022/10/09 04:38:24;;;;;;;3.67;1.90;;;;;;;;;;5109157;28;20723;-69
2022/10/09 04:40:57;;;;;;;2.70;1.87;;;;;;;;;;5111632;28;20444;-69
2022/10/09 04:43:24;;;;;;;2.27;1.90;;;;;;;;;;5110796;28;20470;-69
2022/10/09 04:45:51;;;;;;;2.47;2.20;;;;;;;;;;5111547;28;20449;-69
2022/10/09 04:48:18;;;;;;;7.30;2.00;;;;;;;;;;5111407;28;20992;-70
2022/10/09 04:50:47;;;;;;;3.70;2.40;;;;;;;;;;5111379;28;20447;-69
2022/10/09 04:53:14;;;;;;;3.57;2.40;;;;;;;;;;5109894;28;20467;-69
2022/10/09 04:55:42;;;;;;;5.23;2.43;;;;;;;;;;5111132;28;21008;-69
2022/10/09 04:58:09;;;;;;;4.20;2.37;;;;;;;;;;5110597;28;20835;-69
2022/10/09 05:00:40;;;;;;;2.90;2.20;;;;;;;;;;5110999;28;20451;-69
2022/10/09 05:03:07;;;;;;;4.33;2.10;;;;;;;;;;5110706;28;20435;-69
2022/10/09 05:05:34;;;;;;;3.10;2.80;;;;;;;;;;5110830;28;20447;-70
2022/10/09 05:08:03;;;;;;;4.00;2.00;;;;;;;;;;5110902;28;20457;-69
2022/10/09 05:10:31;;;;;;;2.93;1.70;;;;;;;;;;5111088;28;20458;-69
2022/10/09 05:12:58;;;;;;;2.47;2.27;;;;;;;;;;5110636;28;20446;-68
2022/10/09 05:15:25;;;;;;;2.23;1.60;;;;;;;;;;5110679;28;20455;-69
2022/10/09 05:17:52;;;;;;;3.47;1.93;;;;;;;;;;5111044;28;20488;-69
2022/10/09 05:20:19;;;;;;;4.00;2.00;;;;;;;;;;5111351;28;20449;-69
2022/10/09 05:22:47;;;;;;;3.00;1.83;;;;;;;;;;5110782;28;20444;-68
2022/10/09 05:25:15;;;;;;;2.80;2.50;;;;;;;;;;5109648;28;20450;-68
2022/10/09 05:27:42;;;;;;;2.60;1.80;;;;;;;;;;5111264;28;20455;-68
2022/10/09 05:30:10;;;;;;;3.00;1.43;;;;;;;;;;5110338;28;20942;-67
2022/10/09 05:32:37;;;;;;;3.20;1.43;;;;;;;;;;5107519;28;20457;-67
2022/10/09 05:35:04;;;;;;;2.63;1.90;;;;;;;;;;5109907;28;20456;-67
2022/10/09 05:37:31;;;;;;;1.90;1.50;;;;;;;;;;5111014;28;20516;-67
2022/10/09 05:39:58;;;;;;;2.40;1.93;;;;;;;;;;5109992;28;20512;-67
2022/10/09 05:42:27;;;;;;;2.57;2.10;;;;;;;;;;5110916;28;20454;-68
2022/10/09 05:44:54;;;;;;;6.23;2.50;;;;;;;;;;5109909;28;20456;-67
2022/10/09 05:47:21;;;;;;;6.83;2.83;;;;;;;;;;5110753;28;21021;-67
2022/10/09 05:49:48;;;;;;;2.30;1.93;;;;;;;;;;5111091;28;20443;-68
2022/10/09 05:52:15;;;;;;;2.23;1.70;;;;;;;;;;5110318;28;20508;-67
2022/10/09 05:54:42;;;;;;;2.30;1.77;;;;;;;;;;5110227;28;20451;-68
2022/10/09 05:57:10;;;;;;;3.50;2.47;;;;;;;;;;5110540;28;20488;-67
2022/10/09 05:59:38;;;;;;;4.57;1.70;;;;;;;;;;5110349;28;20455;-67
2022/10/09 06:02:05;;;;;;;3.50;2.23;;;;;;;;;;5109864;28;20750;-67
2022/10/09 06:04:32;;;;;;;3.90;2.10;;;;;;;;;;5110330;28;20452;-67
2022/10/09 06:06:59;;;;;;;2.87;1.97;;;;;;;;;;5110011;28;20467;-67
2022/10/09 06:09:26;;;;;;;3.60;1.77;;;;;;;;;;5110667;28;20880;-67
2022/10/09 06:11:54;;;;;;;4.27;2.57;;;;;;;;;;5111425;28;20452;-67
2022/10/09 06:14:23;;;;;;;7.83;1.60;;;;;;;;;;5114048;28;20447;-67
2022/10/09 06:16:51;;;;;;;2.50;1.80;;;;;;;;;;5114384;28;20488;-67
2022/10/09 06:19:19;;;;;;;3.30;2.20;;;;;;;;;;5114236;28;20447;-67
2022/10/09 06:21:46;;;;;;;3.90;2.80;;;;;;;;;;5114279;28;20443;-68
2022/10/09 06:24:17;;;;;;;2.83;2.40;;;;;;;;;;5112707;28;20450;-67
2022/10/09 06:26:44;;;;;;;4.20;2.20;;;;;;;;;;5114401;28;20447;-67
2022/10/09 06:29:11;;;;;;;4.40;2.50;;;;;;;;;;5113565;28;20447;-67
2022/10/09 06:31:39;;;;;;;5.10;2.37;;;;;;;;;;5113780;28;20475;-67
2022/10/09 06:34:08;;;;;;;3.40;2.20;;;;;;;;;;5112753;28;20463;-67
2022/10/09 06:36:35;;;;;;;2.63;2.00;;;;;;;;;;5114238;28;20459;-67
2022/10/09 06:39:05;;;;;;;3.70;2.63;;;;;;;;;;5105711;28;20478;-66
2022/10/09 06:41:32;;;;;;;4.30;2.50;;;;;;;;;;5113563;28;20806;-68
2022/10/09 06:44:00;;;;;;;6.10;2.53;;;;;;;;;;5112836;28;20455;-67
2022/10/09 06:46:29;;;;;;;3.07;1.90;;;;;;;;;;5113391;28;20811;-66
2022/10/09 06:48:56;;;;;;;3.97;2.20;;;;;;;;;;5112701;28;20457;-66
2022/10/09 06:51:26;;;;;;;3.47;2.40;;;;;;;;;;5112850;28;20447;-68
2022/10/09 06:53:54;;;;;;;3.20;2.90;;;;;;;;;;5105040;28;20447;-68
2022/10/09 06:56:22;;;;;;;4.30;2.93;;;;;;;;;;5113523;28;20494;-71
2022/10/09 06:58:50;;;;;;;4.30;2.93;;;;;;;;;;5112797;28;20496;-68
2022/10/09 07:01:18;;;;;;;4.70;2.97;;;;;;;;;;5112050;28;20654;-71
2022/10/09 07:03:46;;;;;;;2.60;2.23;;;;;;;;;;5112593;28;20447;-69
2022/10/09 07:06:14;;;;;;;4.43;3.60;;;;;;;;;;5112319;28;20830;-69
2022/10/09 07:08:44;;;;;;;5.10;3.53;;;;;;;;;;5112842;28;20801;-70
2022/10/09 07:11:12;;;;;;;2.70;2.10;;;;;;;;;;5112673;28;20477;-69
2022/10/09 07:13:39;;;;;;;4.47;3.30;;;;;;;;;;5107280;28;20530;-69
2022/10/09 07:16:07;;;;;;;4.63;3.20;;;;;;;;;;5112568;28;20936;-69
2022/10/09 07:18:34;;;;;;;5.63;3.20;;;;;;;;;;5113289;28;20561;-69
2022/10/09 07:21:02;;;;;;;7.87;4.40;;;;;;;;;;5112338;28;20448;-69
2022/10/09 07:23:30;;;;;;;4.80;3.00;;;;;;;;;;5107302;28;20484;-70
2022/10/09 07:25:58;;;;;;;5.30;3.37;;;;;;;;;;5099664;28;20447;-69
2022/10/09 07:28:26;;;;;;;3.37;2.97;;;;;;;;;;5113061;28;20835;-68
2022/10/09 07:30:53;;;;;;;3.83;3.07;;;;;;;;;;5103325;28;20799;-69
2022/10/09 07:33:20;;;;;;;4.33;2.70;;;;;;;;;;5111843;28;20447;-68
2022/10/09 07:35:54;;;;;;;5.53;4.10;;;;;;;;;;5108330;28;20459;-67
2022/10/09 07:38:21;;;;;;;6.53;3.03;;;;;;;;;;5112860;28;20471;-71
2022/10/09 07:40:48;;;;;;;3.27;2.40;;;;;;;;;;5112546;28;20451;-71
2022/10/09 07:43:16;;;;;;;5.03;2.80;;;;;;;;;;5111764;28;20513;-71
2022/10/09 07:45:44;;;;;;;5.80;3.47;;;;;;;;;;5094240;28;20448;-71
2022/10/09 07:48:11;;;;;;;5.03;4.10;;;;;;;;;;5100583;28;20468;-70
2022/10/09 07:50:38;;;;;;;5.33;3.53;;;;;;;;;;5110677;28;20810;-72
2022/10/09 07:53:05;;;;;;;4.37;2.83;;;;;;;;;;5108551;28;20459;-70
2022/10/09 07:55:32;;;;;;;4.27;2.87;;;;;;;;;;5112136;28;20959;-70
2022/10/09 07:58:00;;;;;;;4.23;3.07;;;;;;;;;;5110380;28;20488;-69
2022/10/09 08:00:28;;;;;;;6.07;2.70;;;;;;;;;;5108795;28;20444;-68
2022/10/09 08:02:56;;;;;;;4.90;2.43;;;;;;;;;;5125081;27;20448;-67
2022/10/09 08:05:23;;;;;;;8.30;3.30;;;;;;;;;;5112413;28;20437;-67
2022/10/09 08:07:50;;;;;;;5.87;3.20;;;;;;;;;;5112224;28;20542;-69
2022/10/09 08:10:17;;;;;;;3.07;2.77;;;;;;;;;;5109236;28;20923;-69
2022/10/09 08:12:44;;;;;;;4.87;3.20;;;;;;;;;;5112193;28;20811;-69
2022/10/09 08:15:12;;;;;;;6.10;3.60;;;;;;;;;;5111530;28;20447;-69
2022/10/09 08:17:40;;;;;;;5.70;2.83;;;;;;;;;;5107241;28;20540;-69
2022/10/09 08:20:08;;;;;;;4.63;2.50;;;;;;;;;;5111540;28;20446;-69
2022/10/09 08:22:35;;;;;;;4.80;3.00;;;;;;;;;;5111811;28;20450;-70
2022/10/09 08:25:02;;;;;;;3.80;2.73;;;;;;;;;;5108180;28;20463;-70
2022/10/09 08:27:29;;;;;;;3.50;2.80;;;;;;;;;;5111943;28;20448;-70
2022/10/09 08:29:56;;;;;;;4.00;2.60;;;;;;;;;;5110978;28;20446;-69
2022/10/09 08:32:23;;;;;;;2.53;2.07;;;;;;;;;;5110234;28;20451;-71
2022/10/09 08:34:52;;;;;;;5.60;3.13;;;;;;;;;;5105972;28;20451;-70
2022/10/09 08:37:19;;;;;;;3.13;2.67;;;;;;;;;;5111687;28;20810;-69
2022/10/09 08:39:46;;;;;;;4.93;2.23;;;;;;;;;;5110976;28;20483;-70
2022/10/09 08:42:22;;;;;;;3.87;2.50;;;;;;;;;;5110072;28;20459;-69
2022/10/09 08:44:49;;;;;;;3.30;2.90;;;;;;;;;;5111040;28;20778;-70
2022/10/09 08:47:19;;;;;;;3.17;2.20;;;;;;;;;;5110508;28;20478;-70
2022/10/09 08:49:49;;;;;;;3.03;2.07;;;;;;;;;;5111177;28;20452;-70
2022/10/09 08:52:22;;;;;;;4.33;2.80;;;;;;;;;;5111047;28;20444;-71
2022/10/09 08:54:49;;;;;;;2.13;1.93;;;;;;;;;;5111219;28;20440;-70
2022/10/09 08:57:17;;;;;;;3.57;1.87;;;;;;;;;;5111672;28;20478;-70
2022/10/09 08:59:45;;;;;;;6.67;2.63;;;;;;;;;;5111342;28;20476;-73
2022/10/09 09:02:33;;;;;;;2.70;2.07;;;;;;;;;;5110251;28;20436;-74
2022/10/09 09:05:04;;;;;;;3.37;2.23;;;;;;;;;;5107098;28;20815;-73
2022/10/09 09:07:35;;;;;;;2.20;2.00;;;;;;;;;;5105638;28;20450;-72
2022/10/09 09:10:06;;;;;;;2.70;2.50;;;;;;;;;;5102283;28;20524;-73
2022/10/09 09:12:36;;;;;;;6.23;1.90;;;;;;;;;;5103698;28;20452;-71
2022/10/09 09:15:15;;;;;;;3.40;2.17;;;;;;;;;;5107910;28;20812;-70
2022/10/09 09:17:46;;;;;;;6.40;2.33;;;;;;;;;;5106468;28;20448;-72
2022/10/09 09:20:16;;;;;;;2.50;1.70;;;;;;;;;;5108690;28;20454;-72
2022/10/09 09:22:48;;;;;;;5.70;1.97;;;;;;;;;;5107666;28;20462;-71
2022/10/09 09:25:18;;;;;;;6.23;1.90;;;;;;;;;;5103781;28;20447;-72
2022/10/09 09:27:46;;;;;;;3.20;2.33;;;;;;;;;;5107835;28;20533;-74
2022/10/09 09:30:16;;;;;;;1.63;1.47;;;;;;;;;;5104493;28;20456;-76
2022/10/09 09:32:46;;;;;;;3.20;1.73;;;;;;;;;;5103648;28;20450;-71
2022/10/09 09:35:15;;;;;;;5.20;1.50;;;;;;;;;;5099456;28;20842;-73
2022/10/09 09:37:42;;;;;;;1.60;1.30;;;;;;;;;;5108846;28;20440;-72
2022/10/09 09:40:14;;;;;;;2.93;1.30;;;;;;;;;;5107960;28;20432;-72
2022/10/09 09:42:42;;;;;;;1.93;1.30;;;;;;;;;;5108685;28;20462;-72
2022/10/09 09:45:14;;;;;;;3.03;1.70;;;;;;;;;;5107895;28;20911;-72
2022/10/09 09:47:43;;;;;;;1.53;0.90;;;;;;;;;;5111033;28;20909;-73
2022/10/09 09:50:11;;;;;;;2.07;1.20;;;;;;;;;;5111763;28;20428;-73
2022/10/09 09:52:40;;;;;;;2.17;1.50;;;;;;;;;;5104211;28;20455;-72
2022/10/09 09:55:07;;;;;;;2.00;1.40;;;;;;;;;;5111495;28;20953;-72
2022/10/09 09:57:38;;;;;;;2.27;1.23;;;;;;;;;;5111312;28;20654;-73
2022/10/09 10:00:21;;;;;;;1.47;1.13;;;;;;;;;;5110696;28;20483;-73
2022/10/09 10:02:48;;;;;;;3.13;1.33;;;;;;;;;;5111348;28;20777;-73
2022/10/09 10:05:17;;;;;;;2.80;1.23;;;;;;;;;;5111448;28;20455;-73
2022/10/09 10:07:48;;;;;;;2.97;1.57;;;;;;;;;;5110824;28;20455;-72
2022/10/09 10:10:17;;;;;;;3.13;1.23;;;;;;;;;;5109862;28;20564;-72
2022/10/09 10:12:47;;;;;;;3.43;1.20;;;;;;;;;;5111129;28;20477;-71
2022/10/09 10:15:22;;;;;;;3.27;1.63;;;;;;;;;;5111225;28;20455;-72
2022/10/09 10:17:50;;;;;;;1.67;1.17;;;;;;;;;;5109753;28;20462;-72
2022/10/09 10:20:17;;;;;;;1.30;0.97;;;;;;;;;;5104011;28;20482;-71
2022/10/09 10:22:47;;;;;;;6.20;1.40;;;;;;;;;;5111587;28;20895;-72
2022/10/09 10:25:16;;;;;;;1.57;1.10;;;;;;;;;;5110951;28;20456;-72
2022/10/09 10:27:44;;;;;;;2.00;0.77;;;;;;;;;;5111634;28;20888;-71
2022/10/09 10:30:14;;;;;;;1.87;1.30;;;;;;;;;;5110238;28;20474;-70
2022/10/09 10:32:47;;;;;;;1.50;1.13;;;;;;;;;;5110963;28;20447;-71
2022/10/09 10:35:16;;;;;;;1.23;1.10;;;;;;;;;;5110856;28;20878;-72
2022/10/09 10:37:45;;;;;;;1.83;1.60;;;;;;;;;;5111193;28;20454;-71
2022/10/09 10:40:15;;;;;;;1.60;1.03;;;;;;;;;;5109014;28;20476;-72
2022/10/09 10:42:44;;;;;;;3.90;1.30;;;;;;;;;;5110397;28;20447;-72
2022/10/09 10:45:15;;;;;;;3.10;1.50;;;;;;;;;;5110303;28;20489;-72
2022/10/09 10:47:45;;;;;;;3.80;1.47;;;;;;;;;;5111085;28;20531;-71
2022/10/09 10:50:14;;;;;;;2.37;1.20;;;;;;;;;;5102734;28;20459;-71
2022/10/09 10:52:44;;;;;;;3.67;1.23;;;;;;;;;;5110796;28;20448;-71
2022/10/09 10:55:18;;;;;;;1.53;1.10;;;;;;;;;;5110592;28;20459;-71
2022/10/09 10:57:49;;;;;;;1.50;1.33;;;;;;;;;;5110037;28;20436;-70
2022/10/09 11:00:18;;;;;;;1.03;0.87;;;;;;;;;;5106088;28;20469;-70
2022/10/09 11:02:53;;;;;;;0.90;0.77;;;;;;;;;;5117979;27;20551;-69
2022/10/09 11:05:26;;;;;;;3.00;0.90;;;;;;;;;;5110625;28;20447;-70
2022/10/09 11:07:59;;;;;;;2.10;1.27;;;;;;;;;;5111177;28;20440;-70
2022/10/09 11:10:30;;;;;;;2.23;0.97;;;;;;;;;;5113348;28;20460;-71
2022/10/09 11:13:01;;;;;;;3.13;1.10;;;;;;;;;;5112412;28;20478;-72
2022/10/09 11:15:36;;;;;;;1.13;0.90;;;;;;;;;;5113272;28;20821;-72
2022/10/09 11:18:09;;;;;;;5.13;1.00;;;;;;;;;;5112469;28;20946;-71
2022/10/09 11:20:51;;;;;;;1.37;1.00;;;;;;;;;;5113350;28;20472;-71
2022/10/09 11:23:26;;;;;;;1.50;1.10;;;;;;;;;;5110385;28;20460;-71
2022/10/09 11:25:56;;;;;;;1.13;1.00;;;;;;;;;;5113183;28;20443;-69
2022/10/09 11:28:27;;;;;;;1.73;1.30;;;;;;;;;;5113085;28;20439;-71
2022/10/09 11:31:01;;;;;;;0.93;0.83;;;;;;;;;;5112543;28;20432;-71
2022/10/09 11:33:33;;;;;;;2.00;1.00;;;;;;;;;;5112976;28;20527;-71
2022/10/09 11:36:02;;;;;;;1.40;1.10;;;;;;;;;;5112735;28;20537;-71
2022/10/09 11:38:32;;;;;;;2.43;1.37;;;;;;;;;;5112948;28;20436;-71
2022/10/09 11:41:00;;;;;;;1.17;0.93;;;;;;;;;;5112327;28;20480;-72
2022/10/09 11:43:39;;;;;;;2.20;0.87;;;;;;;;;;5112458;28;20810;-72
2022/10/09 11:46:10;;;;;;;1.67;1.50;;;;;;;;;;5112120;28;20451;-71
2022/10/09 11:48:43;;;;;;;2.17;1.10;;;;;;;;;;5072157;28;20503;-71
2022/10/09 11:51:13;;;;;;;2.23;1.70;;;;;;;;;;5071854;28;20445;-72
2022/10/09 11:53:41;;;;;;;1.83;1.00;;;;;;;;;;5071303;28;20879;-72
2022/10/09 11:56:08;;;;;;;1.10;0.80;;;;;;;;;;5071362;28;20450;-72
2022/10/09 11:58:36;;;;;;;1.13;1.03;;;;;;;;;;5071555;28;20450;-71
2022/10/09 12:01:12;;;;;;;3.37;1.30;;;;;;;;;;5071220;28;20453;-72
2022/10/09 12:03:40;;;;;;;1.63;0.90;;;;;;;;;;5071415;28;20441;-72
2022/10/09 12:06:09;;;;;;;1.80;0.80;;;;;;;;;;5071139;28;20450;-71
2022/10/09 12:08:36;;;;;;;1.67;0.90;;;;;;;;;;5070968;28;20493;-71
2022/10/09 12:11:09;;;;;;;1.07;0.70;;;;;;;;;;5070727;28;20446;-71
2022/10/09 12:13:50;;;;;;;1.27;0.80;;;;;;;;;;5071253;28;20473;-71
2022/10/09 12:16:35;;;;;;;1.67;0.87;;;;;;;;;;5070540;28;20447;-70
2022/10/09 12:19:04;;;;;;;1.43;1.00;;;;;;;;;;5070912;28;20567;-71
2022/10/09 12:21:33;;;;;;;1.47;1.13;;;;;;;;;;5071166;28;20452;-71
2022/10/09 12:24:00;;;;;;;1.10;1.00;;;;;;;;;;5070851;28;20442;-71
2022/10/09 12:26:28;;;;;;;1.30;0.83;;;;;;;;;;5071082;28;20453;-73
2022/10/09 12:28:56;;;;;;;1.37;0.97;;;;;;;;;;5070603;28;20442;-71
2022/10/09 12:31:26;;;;;;;2.53;1.00;;;;;;;;;;5071229;28;20540;-71
2022/10/09 12:33:56;;;;;;;1.27;1.10;;;;;;;;;;5071330;28;20511;-68
2022/10/09 12:36:25;;;;;;;1.30;1.00;;;;;;;;;;5071291;28;20445;-71
2022/10/09 12:38:52;;;;;;;0.80;0.70;;;;;;;;;;5071286;28;20810;-71
2022/10/09 12:41:23;;;;;;;1.57;1.03;;;;;;;;;;5070905;28;20446;-71
2022/10/09 12:43:52;;;;;;;1.97;1.13;;;;;;;;;;5071079;28;20982;-71
2022/10/09 12:46:26;;;;;;;1.80;1.30;;;;;;;;;;5074121;28;20503;-71
2022/10/09 12:48:55;;;;;;;1.63;1.10;;;;;;;;;;5111332;28;20523;-69
2022/10/09 12:51:24;;;;;;;1.77;0.90;;;;;;;;;;5111374;28;20455;-72
2022/10/09 12:53:52;;;;;;;0.90;0.73;;;;;;;;;;5098537;28;20444;-71
2022/10/09 12:56:22;;;;;;;1.27;1.00;;;;;;;;;;5111657;28;20440;-70
2022/10/09 12:58:49;;;;;;;1.27;0.80;;;;;;;;;;5111885;28;20455;-71
2022/10/09 13:01:17;;;;;;;1.10;0.80;;;;;;;;;;5110513;28;20447;-71
2022/10/09 13:03:52;;;;;;;1.13;1.00;;;;;;;;;;5111818;28;20455;-73
2022/10/09 13:06:22;;;;;;;3.70;1.03;;;;;;;;;;5111544;28;20440;-72
2022/10/09 13:08:53;;;;;;;1.20;1.00;;;;;;;;;;5111811;28;20448;-72
2022/10/09 13:11:22;;;;;;;2.10;1.03;;;;;;;;;;5111088;28;20452;-73
2022/10/09 13:13:49;;;;;;;3.30;1.17;;;;;;;;;;5111470;28;20543;-71
2022/10/09 13:16:16;;;;;;;2.00;1.00;;;;;;;;;;5110963;28;20458;-72
2022/10/09 13:18:43;;;;;;;1.10;0.73;;;;;;;;;;5111521;28;20452;-72
2022/10/09 13:21:23;;;;;;;2.03;1.10;;;;;;;;;;5112484;28;20506;-71
2022/10/09 13:23:51;;;;;;;1.97;0.90;;;;;;;;;;5115778;28;20440;-71
2022/10/09 13:26:23;;;;;;;0.97;0.80;;;;;;;;;;5115281;28;20934;-71
2022/10/09 13:28:50;;;;;;;0.83;0.83;;;;;;;;;;5115613;28;20482;-72
2022/10/09 13:31:18;;;;;;;1.17;1.03;;;;;;;;;;5114479;28;20448;-71
2022/10/09 13:33:45;;;;;;;1.40;0.90;;;;;;;;;;5115115;28;20952;-72
2022/10/09 13:36:13;;;;;;;1.80;1.20;;;;;;;;;;5115057;28;20530;-72
2022/10/09 13:38:40;;;;;;;1.93;1.23;;;;;;;;;;5115468;28;20451;-72
2022/10/09 13:41:10;;;;;;;1.80;1.10;;;;;;;;;;5114240;28;20488;-70
2022/10/09 13:43:37;;;;;;;1.73;0.90;;;;;;;;;;5114902;28;20444;-71
2022/10/09 13:46:04;;;;;;;1.83;1.17;;;;;;;;;;5114337;28;20910;-72
2022/10/09 13:48:32;;;;;;;2.30;0.87;;;;;;;;;;5114689;28;20471;-72
2022/10/09 13:50:59;;;;;;;1.13;0.80;;;;;;;;;;5114633;28;20451;-72
2022/10/09 13:53:27;;;;;;;2.60;1.13;;;;;;;;;;5114586;28;20459;-73
2022/10/09 13:55:54;;;;;;;1.23;1.00;;;;;;;;;;5114251;28;20456;-72
2022/10/09 13:58:23;;;;;;;2.67;1.27;;;;;;;;;;5114678;28;20931;-72
2022/10/09 14:00:50;;;;;;;2.60;1.10;;;;;;;;;;5114629;28;20997;-73
2022/10/09 14:03:17;;;;;;;1.10;1.00;;;;;;;;;;5113876;28;20439;-72
2022/10/09 14:05:45;;;;;;;2.40;1.23;;;;;;;;;;5115012;28;20479;-72
2022/10/09 14:08:12;;;;;;;1.20;0.90;;;;;;;;;;5114320;28;20450;-72
2022/10/09 14:10:41;;;;;;;1.83;1.00;;;;;;;;;;5114740;28;20448;-72
2022/10/09 14:13:09;;;;;;;1.50;1.13;;;;;;;;;;5113556;28;20881;-72
2022/10/09 14:15:40;;;;;;;4.40;0.93;;;;;;;;;;5114730;28;20440;-72
2022/10/09 14:18:07;;;;;;;1.40;1.00;;;;;;;;;;5114017;28;20455;-73
2022/10/09 14:20:34;;;;;;;1.13;0.93;;;;;;;;;;5114528;28;20479;-72
2022/10/09 14:23:02;;;;;;;2.77;1.20;;;;;;;;;;5113686;28;20539;-73
2022/10/09 14:25:29;;;;;;;1.80;1.10;;;;;;;;;;5100910;28;20476;-74
2022/10/09 14:27:56;;;;;;;1.77;1.00;;;;;;;;;;5113793;28;20808;-73